createdAt,value
2019-05-25T00:01:06.095Z,57.40
2019-05-25T00:03:37.723Z,57.20
2019-05-25T00:06:08.127Z,57.30
2019-05-25T00:08:38.707Z,57.40
2019-05-25T00:11:09.112Z,57.30
2019-05-25T00:13:38.689Z,57.30
2019-05-25T00:16:08.476Z,56.90
2019-05-25T00:18:37.545Z,57.00
2019-05-25T00:21:06.732Z,57.00
2019-05-25T00:23:36.179Z,56.90
2019-05-25T00:26:05.755Z,56.80
2019-05-25T00:28:35.398Z,56.90
2019-05-25T00:31:04.667Z,56.60
2019-05-25T00:33:34.711Z,56.80
2019-05-25T00:36:04.727Z,56.80
2019-05-25T00:38:34.428Z,56.50
2019-05-25T00:41:04.316Z,56.40
2019-05-25T00:43:33.156Z,56.40
2019-05-25T00:46:02.363Z,56.20
2019-05-25T00:48:31.760Z,56.40
2019-05-25T00:51:01.014Z,56.30
2019-05-25T00:53:30.329Z,56.30
2019-05-25T00:56:01.095Z,56.50
2019-05-25T00:58:30.698Z,56.00
2019-05-25T01:01:00.821Z,56.00
2019-05-25T01:03:30.295Z,55.80
2019-05-25T01:06:00.054Z,55.20
2019-05-25T01:08:29.859Z,55.30
2019-05-25T01:11:00.805Z,55.70
2019-05-25T01:13:29.841Z,55.30
2019-05-25T01:15:58.582Z,55.20
2019-05-25T01:18:29.876Z,55.40
2019-05-25T01:20:58.465Z,55.30
2019-05-25T01:23:27.406Z,55.40
2019-05-25T01:25:59.782Z,55.20
2019-05-25T01:28:28.921Z,55.00
2019-05-25T01:30:58.441Z,55.00
2019-05-25T01:33:30.380Z,54.70
2019-05-25T01:35:59.636Z,54.60
2019-05-25T01:38:29.145Z,54.00
2019-05-25T01:40:58.757Z,54.00
2019-05-25T01:43:29.482Z,54.40
2019-05-25T01:45:58.310Z,54.40
2019-05-25T01:48:27.366Z,54.30
2019-05-25T01:50:56.285Z,54.10
2019-05-25T01:53:25.679Z,53.90
2019-05-25T01:55:54.526Z,54.10
2019-05-25T01:58:24.912Z,54.20
2019-05-25T02:00:54.059Z,54.20
2019-05-25T02:03:23.354Z,54.30
2019-05-25T02:05:52.765Z,54.10
2019-05-25T02:08:21.771Z,54.10
2019-05-25T02:10:51.156Z,54.20
2019-05-25T02:13:20.300Z,54.40
2019-05-25T02:15:50.389Z,54.40
2019-05-25T02:18:21.066Z,54.30
2019-05-25T02:20:49.958Z,54.40
2019-05-25T02:23:19.226Z,54.60
2019-05-25T02:25:48.753Z,55.10
2019-05-25T02:28:17.952Z,55.00
2019-05-25T02:30:49.879Z,54.90
2019-05-25T02:33:22.208Z,55.10
2019-05-25T02:35:51.046Z,55.20
2019-05-25T02:38:19.936Z,55.10
2019-05-25T02:40:49.225Z,55.10
2019-05-25T02:43:18.012Z,55.00
2019-05-25T02:45:47.316Z,55.20
2019-05-25T02:48:16.320Z,55.00
2019-05-25T02:50:46.764Z,54.80
2019-05-25T02:53:15.940Z,54.90
2019-05-25T02:55:45.191Z,55.00
2019-05-25T02:58:15.163Z,55.30
2019-05-25T03:00:45.209Z,55.50
2019-05-25T03:03:14.435Z,55.10
2019-05-25T03:05:43.585Z,55.20
2019-05-25T03:08:14.225Z,55.20
2019-05-25T03:10:43.433Z,55.30
2019-05-25T03:13:12.505Z,55.30
2019-05-25T03:15:41.434Z,55.10
2019-05-25T03:18:10.312Z,54.90
2019-05-25T03:20:39.634Z,54.90
2019-05-25T03:23:08.698Z,54.90
2019-05-25T03:25:49.195Z,54.60
2019-05-25T03:28:08.770Z,54.90
2019-05-25T03:30:39.563Z,54.90
2019-05-25T03:33:08.477Z,54.80
2019-05-25T03:35:38.850Z,54.80
2019-05-25T03:38:07.995Z,54.60
2019-05-25T03:40:37.021Z,54.90
2019-05-25T03:43:07.539Z,54.80
2019-05-25T03:45:38.705Z,54.90
2019-05-25T03:48:06.655Z,54.80
2019-05-25T03:50:36.445Z,55.00
2019-05-25T03:53:06.613Z,54.90
2019-05-25T03:55:36.183Z,54.80
2019-05-25T03:58:05.620Z,54.80
2019-05-25T04:00:34.774Z,54.50
2019-05-25T04:03:03.786Z,54.50
2019-05-25T04:05:33.638Z,54.30
2019-05-25T04:08:03.073Z,54.30
2019-05-25T04:10:32.591Z,54.90
2019-05-25T04:13:02.202Z,54.90
2019-05-25T04:15:31.299Z,54.70
2019-05-25T04:18:00.508Z,55.30
2019-05-25T04:20:29.813Z,54.90
2019-05-25T04:22:59.139Z,54.70
2019-05-25T04:25:28.941Z,55.00
2019-05-25T04:27:58.503Z,54.90
2019-05-25T04:30:28.294Z,54.80
2019-05-25T04:32:57.703Z,54.90
2019-05-25T04:35:28.894Z,54.80
2019-05-25T04:37:58.371Z,55.30
2019-05-25T04:40:27.818Z,55.00
2019-05-25T04:42:57.446Z,55.00
2019-05-25T04:45:27.439Z,55.10
2019-05-25T04:48:03.593Z,55.40
2019-05-25T04:50:33.102Z,54.80
2019-05-25T04:53:02.715Z,55.00
2019-05-25T04:55:32.452Z,55.00
2019-05-25T04:58:02.060Z,55.10
2019-05-25T05:00:31.540Z,54.90
2019-05-25T05:03:00.884Z,54.90
2019-05-25T05:05:30.274Z,54.90
2019-05-25T05:08:00.904Z,54.80
2019-05-25T05:10:30.395Z,55.00
2019-05-25T05:13:00.947Z,55.30
2019-05-25T05:15:35.838Z,54.70
2019-05-25T05:20:50.765Z,54.80
2019-05-25T05:23:20.848Z,55.50
2019-05-25T05:25:50.656Z,54.50
2019-05-25T05:28:19.744Z,55.10
2019-05-25T05:30:50.437Z,54.50
2019-05-25T05:33:19.521Z,54.70
2019-05-25T05:35:48.505Z,54.80
2019-05-25T05:38:41.076Z,51.20
2019-05-25T05:41:10.159Z,48.10
2019-05-25T05:43:39.779Z,47.60
2019-05-25T05:46:13.383Z,47.30
2019-05-25T05:48:43.898Z,47.00
2019-05-25T05:51:19.932Z,46.90
2019-05-25T05:53:49.077Z,46.90
2019-05-25T05:56:18.172Z,46.90
2019-05-25T05:58:48.666Z,46.80
2019-05-25T06:01:17.966Z,46.80
2019-05-25T06:03:46.871Z,46.90
2019-05-25T06:06:15.727Z,46.80
2019-05-25T06:08:44.339Z,46.80
2019-05-25T06:11:13.414Z,46.90
2019-05-25T06:13:42.559Z,47.00
2019-05-25T06:16:11.496Z,47.00
2019-05-25T06:18:40.655Z,47.00
2019-05-25T06:21:10.465Z,47.10
2019-05-25T06:23:39.713Z,47.20
2019-05-25T06:26:08.499Z,47.20
2019-05-25T06:28:37.533Z,47.20
2019-05-25T06:31:06.703Z,47.10
2019-05-25T06:33:35.971Z,47.60
2019-05-25T06:36:05.247Z,47.10
2019-05-25T06:38:34.554Z,47.00
2019-05-25T06:41:08.415Z,47.20
2019-05-25T06:43:34.881Z,47.20
2019-05-25T06:46:04.155Z,47.10
2019-05-25T06:48:33.153Z,47.20
2019-05-25T06:51:02.038Z,47.10
2019-05-25T06:53:30.919Z,47.10
2019-05-25T06:56:00.939Z,47.10
2019-05-25T06:58:29.938Z,47.00
2019-05-25T07:00:58.903Z,47.00
2019-05-25T07:03:27.981Z,46.90
2019-05-25T07:05:57.333Z,47.60
2019-05-25T07:08:26.738Z,47.00
2019-05-25T07:10:55.439Z,47.00
2019-05-25T07:13:28.355Z,46.90
2019-05-25T07:15:54.948Z,47.00
2019-05-25T07:18:25.532Z,47.10
2019-05-25T07:20:54.665Z,47.10
2019-05-25T07:23:24.803Z,47.10
2019-05-25T07:25:53.703Z,47.30
2019-05-25T07:28:22.736Z,47.60
2019-05-25T07:30:51.729Z,47.30
2019-05-25T07:33:20.822Z,47.20
2019-05-25T07:35:49.778Z,47.30
2019-05-25T07:38:18.567Z,47.40
2019-05-25T07:40:47.899Z,47.40
2019-05-25T07:43:20.494Z,47.50
2019-05-25T07:45:50.913Z,47.50
2019-05-25T07:48:20.223Z,47.50
2019-05-25T07:50:49.621Z,47.50
2019-05-25T07:53:19.080Z,47.50
2019-05-25T07:55:48.217Z,47.60
2019-05-25T07:58:24.706Z,47.50
2019-05-25T08:00:54.534Z,47.10
2019-05-25T08:03:23.279Z,47.60
2019-05-25T08:05:52.163Z,47.60
2019-05-25T08:08:23.854Z,47.70
2019-05-25T08:10:53.618Z,47.70
2019-05-25T08:13:22.576Z,47.70
2019-05-25T08:15:51.304Z,47.70
2019-05-25T08:18:21.551Z,47.80
2019-05-25T08:20:50.707Z,47.80
2019-05-25T08:23:24.703Z,47.80
2019-05-25T08:25:59.466Z,47.80
2019-05-25T08:28:32.575Z,47.80
2019-05-25T08:31:01.402Z,47.80
2019-05-25T08:33:29.760Z,47.90
2019-05-25T08:36:00.119Z,47.90
2019-05-25T08:38:28.980Z,48.00
2019-05-25T08:40:58.385Z,47.90
2019-05-25T08:43:27.366Z,48.00
2019-05-25T08:45:56.357Z,48.00
2019-05-25T08:48:30.850Z,47.90
2019-05-25T08:51:01.117Z,48.00
2019-05-25T08:53:40.541Z,47.90
2019-05-25T08:56:02.930Z,48.00
2019-05-25T08:58:47.212Z,48.00
2019-05-25T09:01:03.831Z,47.90
2019-05-25T09:03:33.304Z,47.90
2019-05-25T09:06:03.062Z,48.00
2019-05-25T09:08:32.437Z,47.90
2019-05-25T09:11:01.678Z,47.90
2019-05-25T09:13:31.407Z,47.90
2019-05-25T09:16:00.785Z,47.90
2019-05-25T09:18:29.801Z,48.00
2019-05-25T09:20:58.770Z,47.90
2019-05-25T09:23:27.631Z,48.00
2019-05-25T09:25:56.567Z,48.00
2019-05-25T09:28:25.536Z,48.10
2019-05-25T09:30:54.759Z,48.00
2019-05-25T09:33:24.173Z,48.10
2019-05-25T09:35:53.428Z,48.80
2019-05-25T09:38:22.117Z,48.20
2019-05-25T09:40:51.286Z,48.20
2019-05-25T09:43:20.339Z,48.10
2019-05-25T09:45:49.457Z,48.10
2019-05-25T09:48:18.845Z,48.10
2019-05-25T09:50:48.486Z,48.20
2019-05-25T09:53:18.025Z,48.30
2019-05-25T09:55:47.430Z,48.20
2019-05-25T09:58:16.838Z,48.20
2019-05-25T10:00:45.648Z,48.30
2019-05-25T10:03:14.679Z,48.30
2019-05-25T10:05:44.226Z,48.30
2019-05-25T10:08:13.521Z,48.30
2019-05-25T10:10:42.289Z,48.30
2019-05-25T10:13:11.226Z,48.50
2019-05-25T10:15:40.637Z,49.00
2019-05-25T10:18:11.128Z,48.50
2019-05-25T10:20:40.104Z,48.40
2019-05-25T10:23:16.328Z,48.40
2019-05-25T10:25:45.331Z,48.40
2019-05-25T10:28:14.213Z,48.40
2019-05-25T10:30:44.294Z,48.40
2019-05-25T10:33:13.338Z,48.40
2019-05-25T10:35:43.984Z,48.40
2019-05-25T10:38:13.067Z,48.40
2019-05-25T10:40:42.821Z,48.40
2019-05-25T10:43:11.728Z,48.40
2019-05-25T10:45:40.706Z,48.30
2019-05-25T10:48:10.987Z,48.30
2019-05-25T10:50:40.336Z,48.30
2019-05-25T10:53:09.522Z,48.40
2019-05-25T10:55:38.962Z,48.40
2019-05-25T10:58:07.648Z,48.30
2019-05-25T11:00:36.841Z,48.30
2019-05-25T11:03:11.870Z,48.30
2019-05-25T11:05:41.198Z,48.30
2019-05-25T11:08:10.283Z,48.40
2019-05-25T11:10:39.270Z,48.40
2019-05-25T11:13:09.209Z,48.40
2019-05-25T11:15:38.177Z,49.10
2019-05-25T11:18:07.936Z,48.50
2019-05-25T11:20:37.216Z,48.60
2019-05-25T11:23:06.192Z,48.70
2019-05-25T11:25:34.976Z,48.80
2019-05-25T11:28:08.177Z,48.90
2019-05-25T11:30:36.029Z,49.00
2019-05-25T11:33:05.143Z,49.10
2019-05-25T11:35:34.443Z,49.10
2019-05-25T11:38:03.776Z,49.10
2019-05-25T11:40:33.216Z,49.20
2019-05-25T11:43:04.932Z,49.40
2019-05-25T11:45:34.741Z,49.50
2019-05-25T11:48:04.977Z,49.60
2019-05-25T11:50:34.544Z,49.60
2019-05-25T11:53:06.068Z,49.80
2019-05-25T11:55:36.410Z,49.80
2019-05-25T11:58:12.792Z,50.00
2019-05-25T12:00:40.470Z,50.10
2019-05-25T12:03:09.478Z,50.10
2019-05-25T12:05:38.959Z,50.20
2019-05-25T12:08:07.948Z,50.40
2019-05-25T12:10:37.199Z,50.60
2019-05-25T12:13:06.379Z,50.70
2019-05-25T12:15:41.118Z,51.00
2019-05-25T12:18:10.174Z,50.70
2019-05-25T12:20:40.598Z,50.90
2019-05-25T12:23:09.446Z,51.00
2019-05-25T12:25:40.459Z,51.20
2019-05-25T12:28:09.669Z,51.30
